Terminal Aerodrome Forecast
Issued by NWS

Home | Current Version | Previous Version | Text Only | Print | Product List | Glossary On
Versions: 1 2 3 4 5 6 7 8 9 10 11 12 13 14
000
FTUS46 KSEW 191400 AAA
TAFBLI
TAF AMD
KBLI 191410Z 1914/2012 17014KT P6SM VCSH SCT025 OVC040
      TEMPO 1914/1918 -SHRA BKN025 OVC040
     FM201000 15015G25KT P6SM -RA OVC025=

USA.gov is the U.S. government's official web portal to all federal, state and local government web resources and services.